Time;durP1;ratioP1;P1;durP2;ratioP2;P2;SDS_P1;SDS_P2;PMS_P1;PMS_P2;Temp;Humidity;BMP_temperature;BMP_pressure;BME280_temperature;BME280_humidity;BME280_pressure;Samples;Min_cycle;Max_cycle;Signal;HPM_P1;HPM_P2
2023/11/17 00:01:28;;;;;;;22.50;14.60;;;;;;;;;;5021970;28;20427;-87
2023/11/17 00:03:55;;;;;;;20.38;13.27;;;;;;;;;;5037189;28;20191;-87
2023/11/17 00:06:21;;;;;;;19.40;14.27;;;;;;;;;;5006653;28;20178;-87
2023/11/17 00:08:47;;;;;;;21.90;13.05;;;;;;;;;;5005560;28;20181;-87
2023/11/17 00:11:13;;;;;;;20.87;13.87;;;;;;;;;;5003184;28;20666;-87
2023/11/17 00:13:43;;;;;;;23.93;14.60;;;;;;;;;;5006601;28;20463;-87
2023/11/17 00:16:09;;;;;;;23.58;13.95;;;;;;;;;;5026436;28;20428;-85
2023/11/17 00:18:36;;;;;;;20.20;14.02;;;;;;;;;;5023065;28;20246;-87
2023/11/17 00:21:03;;;;;;;18.70;11.88;;;;;;;;;;5023023;28;20271;-87
2023/11/17 00:23:29;;;;;;;21.73;14.30;;;;;;;;;;5030431;28;20181;-87
2023/11/17 00:25:55;;;;;;;21.65;13.70;;;;;;;;;;5017643;28;20189;-86
2023/11/17 00:28:24;;;;;;;25.97;14.97;;;;;;;;;;4997204;28;20184;-87
2023/11/17 00:30:51;;;;;;;22.00;14.15;;;;;;;;;;5041679;28;20564;-87
2023/11/17 00:33:17;;;;;;;27.45;15.80;;;;;;;;;;5028108;28;20230;-87
2023/11/17 00:35:46;;;;;;;21.45;15.05;;;;;;;;;;5028100;28;20216;-87
2023/11/17 00:38:13;;;;;;;23.73;13.38;;;;;;;;;;5017965;28;20178;-87
2023/11/17 00:40:39;;;;;;;22.35;12.75;;;;;;;;;;5022691;28;20725;-87
2023/11/17 00:43:05;;;;;;;23.45;12.65;;;;;;;;;;5011021;28;20582;-87
2023/11/17 00:45:34;;;;;;;15.73;12.75;;;;;;;;;;5023032;28;20188;-87
2023/11/17 00:48:00;;;;;;;25.23;12.88;;;;;;;;;;5046060;28;20181;-87
2023/11/17 00:50:26;;;;;;;18.83;13.47;;;;;;;;;;5035942;28;20182;-87
2023/11/17 00:52:52;;;;;;;21.60;14.13;;;;;;;;;;5046454;28;20417;-87
2023/11/17 00:55:19;;;;;;;21.10;13.20;;;;;;;;;;5012720;28;20669;-87
2023/11/17 00:57:45;;;;;;;25.17;14.82;;;;;;;;;;5005547;28;20542;-85
2023/11/17 01:00:11;;;;;;;21.67;13.82;;;;;;;;;;5020958;28;20282;-86
2023/11/17 01:02:41;;;;;;;26.23;14.30;;;;;;;;;;5023938;28;20193;-87
2023/11/17 01:05:07;;;;;;;25.95;14.15;;;;;;;;;;5020793;28;20189;-87
2023/11/17 01:07:34;;;;;;;25.95;13.43;;;;;;;;;;5041138;28;20630;-87
2023/11/17 01:10:00;;;;;;;21.95;13.65;;;;;;;;;;5026010;28;20230;-88
2023/11/17 01:12:26;;;;;;;23.00;14.63;;;;;;;;;;5022210;28;20178;-88
2023/11/17 01:14:52;;;;;;;19.63;12.37;;;;;;;;;;5026965;28;20743;-87
2023/11/17 01:17:18;;;;;;;24.83;15.10;;;;;;;;;;5040601;28;20478;-87
2023/11/17 01:19:45;;;;;;;30.88;15.65;;;;;;;;;;5041541;28;20247;-87
2023/11/17 01:22:12;;;;;;;22.15;14.45;;;;;;;;;;5022432;28;20253;-87
2023/11/17 01:24:38;;;;;;;27.13;15.65;;;;;;;;;;5019529;28;20185;-87
2023/11/17 01:27:04;;;;;;;24.55;15.00;;;;;;;;;;5045338;28;20185;-87
2023/11/17 01:29:31;;;;;;;21.63;14.15;;;;;;;;;;5014370;28;20593;-86
2023/11/17 01:31:57;;;;;;;26.52;15.68;;;;;;;;;;5033588;28;20187;-87
2023/11/17 01:34:23;;;;;;;29.50;14.07;;;;;;;;;;5034347;28;20570;-87
2023/11/17 01:36:51;;;;;;;23.27;13.37;;;;;;;;;;5001374;28;20518;-87
2023/11/17 01:39:20;;;;;;;30.48;14.40;;;;;;;;;;5018524;28;20479;-86
2023/11/17 01:41:47;;;;;;;21.75;13.05;;;;;;;;;;5036360;28;20235;-87
2023/11/17 01:44:13;;;;;;;18.95;12.68;;;;;;;;;;5027942;28;20195;-86
2023/11/17 01:46:39;;;;;;;19.88;13.60;;;;;;;;;;5041523;28;20535;-86
2023/11/17 01:49:05;;;;;;;22.85;14.00;;;;;;;;;;5021398;28;20610;-87
2023/11/17 01:51:31;;;;;;;28.90;13.95;;;;;;;;;;5047683;28;20268;-87
2023/11/17 01:53:58;;;;;;;21.98;13.90;;;;;;;;;;5026415;28;20197;-86
2023/11/17 01:56:25;;;;;;;30.60;14.82;;;;;;;;;;5043275;28;20197;-86
2023/11/17 01:58:51;;;;;;;23.48;14.43;;;;;;;;;;5037327;28;20213;-87
2023/11/17 02:01:17;;;;;;;23.98;14.50;;;;;;;;;;5027139;28;20192;-86
2023/11/17 02:03:44;;;;;;;21.92;14.25;;;;;;;;;;5042200;28;20245;-86
2023/11/17 02:06:22;;;;;;;23.67;12.50;;;;;;;;;;5038535;28;20189;-87
2023/11/17 02:09:01;;;;;;;23.35;15.15;;;;;;;;;;5028561;28;20173;-87
2023/11/17 02:11:35;;;;;;;23.02;12.70;;;;;;;;;;5036900;28;20173;-87
2023/11/17 02:14:05;;;;;;;22.65;14.38;;;;;;;;;;5040816;28;20198;-87
2023/11/17 02:16:33;;;;;;;23.65;13.95;;;;;;;;;;5039480;28;20175;-87
2023/11/17 02:19:00;;;;;;;23.63;14.43;;;;;;;;;;5033151;28;20654;-86
2023/11/17 02:21:31;;;;;;;29.70;15.10;;;;;;;;;;5039443;28;20181;-87
2023/11/17 02:23:59;;;;;;;22.55;15.48;;;;;;;;;;5037618;28;20230;-87
2023/11/17 02:26:28;;;;;;;27.08;14.07;;;;;;;;;;5044497;28;20176;-87
2023/11/17 02:29:07;;;;;;;23.67;14.07;;;;;;;;;;5023980;28;20198;-86
2023/11/17 02:31:33;;;;;;;26.27;15.95;;;;;;;;;;5032284;28;20649;-87
2023/11/17 02:34:03;;;;;;;22.38;14.50;;;;;;;;;;5039170;28;20214;-86
2023/11/17 02:36:32;;;;;;;18.80;14.30;;;;;;;;;;5020372;28;20767;-87
2023/11/17 02:39:12;;;;;;;25.25;14.65;;;;;;;;;;5019734;28;20221;-86
2023/11/17 02:41:42;;;;;;;21.15;14.60;;;;;;;;;;5015281;28;20206;-86
2023/11/17 02:44:15;;;;;;;23.63;14.23;;;;;;;;;;5007059;28;20182;-86
2023/11/17 02:46:44;;;;;;;34.42;14.65;;;;;;;;;;5034308;28;20253;-86
2023/11/17 02:49:17;;;;;;;28.38;15.70;;;;;;;;;;5046422;28;20268;-87
2023/11/17 02:51:50;;;;;;;24.13;14.48;;;;;;;;;;5038069;28;20197;-87
2023/11/17 02:54:16;;;;;;;27.50;16.27;;;;;;;;;;5027551;28;20261;-86
2023/11/17 02:56:43;;;;;;;29.60;15.68;;;;;;;;;;5034566;28;20265;-86
2023/11/17 02:59:10;;;;;;;28.85;16.98;;;;;;;;;;5044426;28;20189;-86
2023/11/17 03:01:40;;;;;;;23.50;15.38;;;;;;;;;;5033719;28;20175;-86
2023/11/17 03:04:13;;;;;;;27.15;15.88;;;;;;;;;;5023454;28;20234;-86
2023/11/17 03:06:50;;;;;;;25.58;15.20;;;;;;;;;;5007326;28;20249;-86
2023/11/17 03:09:16;;;;;;;28.58;16.42;;;;;;;;;;5039713;28;20171;-86
2023/11/17 03:11:47;;;;;;;26.65;16.38;;;;;;;;;;5046925;28;20238;-87
2023/11/17 03:14:15;;;;;;;27.85;16.50;;;;;;;;;;5033174;28;20236;-87
2023/11/17 03:16:41;;;;;;;27.80;17.00;;;;;;;;;;5036834;28;20184;-87
2023/11/17 03:19:10;;;;;;;28.02;16.20;;;;;;;;;;5034921;28;20312;-86
2023/11/17 03:21:44;;;;;;;27.20;16.55;;;;;;;;;;5018445;28;20189;-86
2023/11/17 03:24:17;;;;;;;27.15;17.05;;;;;;;;;;5020655;28;20187;-86
2023/11/17 03:26:46;;;;;;;29.75;16.30;;;;;;;;;;5030250;28;20646;-87
2023/11/17 03:29:16;;;;;;;27.35;15.45;;;;;;;;;;5023647;28;20198;-86
2023/11/17 03:31:48;;;;;;;38.38;19.75;;;;;;;;;;5026628;28;20178;-87
2023/11/17 03:34:15;;;;;;;42.33;22.38;;;;;;;;;;5048304;28;20201;-86
2023/11/17 03:36:41;;;;;;;43.55;21.85;;;;;;;;;;5036842;28;20199;-86
2023/11/17 03:39:12;;;;;;;35.10;20.30;;;;;;;;;;5025112;28;20209;-86
2023/11/17 03:41:39;;;;;;;37.47;19.88;;;;;;;;;;5024592;28;20205;-86
2023/11/17 03:44:06;;;;;;;32.88;20.02;;;;;;;;;;5021806;28;20606;-86
2023/11/17 03:46:32;;;;;;;46.08;23.70;;;;;;;;;;5045086;28;20170;-86
2023/11/17 03:48:59;;;;;;;38.15;22.50;;;;;;;;;;5020445;28;20281;-86
2023/11/17 03:51:25;;;;;;;44.25;22.55;;;;;;;;;;5009933;28;20189;-86
2023/11/17 03:53:51;;;;;;;49.50;23.33;;;;;;;;;;5017846;28;20640;-86
2023/11/17 03:56:20;;;;;;;48.50;24.35;;;;;;;;;;5028309;28;20178;-87
2023/11/17 03:58:46;;;;;;;44.92;24.83;;;;;;;;;;5042093;28;20185;-87
2023/11/17 04:01:12;;;;;;;37.73;21.00;;;;;;;;;;5008896;28;20187;-87
2023/11/17 04:03:38;;;;;;;52.73;23.20;;;;;;;;;;5028916;28;20749;-86
2023/11/17 04:06:04;;;;;;;117.60;27.00;;;;;;;;;;5020683;28;20427;-86
2023/11/17 04:08:30;;;;;;;94.88;27.63;;;;;;;;;;5036787;28;20435;-86
2023/11/17 04:10:56;;;;;;;133.70;30.30;;;;;;;;;;5038785;28;20189;-86
2023/11/17 04:13:24;;;;;;;101.07;31.00;;;;;;;;;;5045613;28;20413;-86
2023/11/17 04:15:50;;;;;;;145.55;32.08;;;;;;;;;;5044789;28;20408;-85
2023/11/17 04:18:16;;;;;;;86.55;27.73;;;;;;;;;;5021048;28;20639;-86
2023/11/17 04:20:43;;;;;;;80.47;28.37;;;;;;;;;;5020444;28;20193;-86
2023/11/17 04:23:09;;;;;;;101.18;30.10;;;;;;;;;;5043496;28;20416;-86
2023/11/17 04:25:35;;;;;;;118.53;34.22;;;;;;;;;;5025145;28;20220;-86
2023/11/17 04:28:02;;;;;;;68.17;27.73;;;;;;;;;;5018431;28;20659;-86
2023/11/17 04:30:28;;;;;;;121.38;34.65;;;;;;;;;;5022849;28;20841;-85
2023/11/17 04:32:54;;;;;;;108.23;33.53;;;;;;;;;;5030848;28;20178;-86
2023/11/17 04:35:20;;;;;;;70.65;30.08;;;;;;;;;;5042927;28;20464;-86
2023/11/17 04:37:46;;;;;;;81.37;31.10;;;;;;;;;;5017707;28;20193;-86
2023/11/17 04:40:12;;;;;;;121.25;34.92;;;;;;;;;;5002788;28;20496;-86
2023/11/17 04:42:39;;;;;;;81.95;30.88;;;;;;;;;;5023617;28;20273;-86
2023/11/17 04:45:07;;;;;;;87.85;31.10;;;;;;;;;;5045325;28;20182;-85
2023/11/17 04:47:33;;;;;;;66.68;30.25;;;;;;;;;;5033433;28;20181;-86
2023/11/17 04:49:59;;;;;;;70.77;32.80;;;;;;;;;;5023932;28;20190;-86
2023/11/17 04:52:25;;;;;;;96.57;32.92;;;;;;;;;;5004871;28;20482;-86
2023/11/17 04:54:51;;;;;;;72.65;31.25;;;;;;;;;;5047916;28;20204;-86
2023/11/17 04:57:17;;;;;;;67.88;30.70;;;;;;;;;;5010873;28;20193;-86
2023/11/17 04:59:45;;;;;;;69.20;30.13;;;;;;;;;;5025399;28;20197;-86
2023/11/17 05:02:11;;;;;;;85.80;31.30;;;;;;;;;;5045649;28;20810;-86
2023/11/17 05:04:37;;;;;;;66.13;30.70;;;;;;;;;;5027104;28;20215;-86
2023/11/17 05:07:03;;;;;;;68.33;29.77;;;;;;;;;;5024948;28;20190;-86
2023/11/17 05:09:29;;;;;;;67.47;30.98;;;;;;;;;;5038776;28;20424;-86
2023/11/17 05:11:55;;;;;;;65.00;29.90;;;;;;;;;;5031618;28;20189;-86
2023/11/17 05:14:21;;;;;;;64.37;30.07;;;;;;;;;;5026377;28;20546;-87
2023/11/17 05:16:48;;;;;;;68.93;31.93;;;;;;;;;;5041749;28;20440;-86
2023/11/17 05:19:14;;;;;;;61.15;30.55;;;;;;;;;;5007731;28;20808;-86
2023/11/17 05:21:40;;;;;;;64.82;31.08;;;;;;;;;;5005361;28;20192;-86
2023/11/17 05:24:07;;;;;;;70.27;31.10;;;;;;;;;;5021993;28;20269;-86
2023/11/17 05:26:33;;;;;;;65.90;32.20;;;;;;;;;;5027948;28;20429;-86
2023/11/17 05:28:59;;;;;;;72.50;33.10;;;;;;;;;;5049038;28;20210;-86
2023/11/17 05:31:27;;;;;;;63.13;28.90;;;;;;;;;;5039362;28;20237;-86
2023/11/17 05:33:54;;;;;;;65.15;31.08;;;;;;;;;;5023565;28;20814;-86
2023/11/17 05:36:20;;;;;;;75.35;32.47;;;;;;;;;;5047235;28;20544;-86
2023/11/17 05:38:48;;;;;;;71.30;31.97;;;;;;;;;;5037197;28;20189;-86
2023/11/17 05:41:14;;;;;;;72.82;32.95;;;;;;;;;;5018900;28;20507;-86
2023/11/17 05:43:44;;;;;;;69.10;32.35;;;;;;;;;;5009370;28;20186;-86
2023/11/17 05:46:10;;;;;;;66.65;32.10;;;;;;;;;;5018108;28;20327;-86
2023/11/17 05:48:37;;;;;;;76.68;34.20;;;;;;;;;;5038861;28;20182;-85
2023/11/17 05:51:09;;;;;;;80.63;33.75;;;;;;;;;;5025324;28;20204;-85
2023/11/17 05:53:37;;;;;;;75.68;35.03;;;;;;;;;;5044421;28;20255;-85
2023/11/17 05:56:04;;;;;;;77.07;36.28;;;;;;;;;;5031381;28;20182;-85
2023/11/17 05:58:29;;;;;;;75.65;34.47;;;;;;;;;;5018337;28;20188;-84
2023/11/17 06:00:55;;;;;;;83.47;34.63;;;;;;;;;;5019102;28;20194;-85
2023/11/17 06:03:21;;;;;;;62.55;29.55;;;;;;;;;;5019972;28;20452;-85
2023/11/17 06:05:47;;;;;;;68.40;32.30;;;;;;;;;;5017925;28;20639;-85
2023/11/17 06:08:13;;;;;;;72.70;33.37;;;;;;;;;;5031663;28;20842;-85
2023/11/17 06:10:39;;;;;;;82.47;35.30;;;;;;;;;;5022176;28;20489;-85
2023/11/17 06:13:05;;;;;;;70.80;32.10;;;;;;;;;;5021364;28;20438;-86
2023/11/17 06:15:31;;;;;;;65.25;31.95;;;;;;;;;;5018298;28;20487;-85
2023/11/17 06:17:57;;;;;;;71.47;32.80;;;;;;;;;;5046839;28;20181;-86
2023/11/17 06:20:23;;;;;;;62.57;30.77;;;;;;;;;;5027437;28;20790;-85
2023/11/17 06:22:49;;;;;;;60.58;33.50;;;;;;;;;;5007276;28;20435;-85
2023/11/17 06:25:15;;;;;;;63.13;30.88;;;;;;;;;;5019108;28;20186;-85
2023/11/17 06:27:42;;;;;;;58.25;31.58;;;;;;;;;;5039213;28;20176;-85
2023/11/17 06:30:10;;;;;;;59.65;29.92;;;;;;;;;;5016125;28;20582;-85
2023/11/17 06:32:36;;;;;;;64.15;30.70;;;;;;;;;;5014968;28;20182;-85
2023/11/17 06:35:03;;;;;;;81.67;39.93;;;;;;;;;;5025044;28;20198;-86
2023/11/17 06:37:29;;;;;;;79.97;39.72;;;;;;;;;;5000754;28;20535;-85
2023/11/17 06:39:55;;;;;;;65.68;34.55;;;;;;;;;;5019044;28;20273;-86
2023/11/17 06:42:22;;;;;;;77.63;35.30;;;;;;;;;;5010579;28;20642;-84
2023/11/17 06:44:48;;;;;;;75.95;34.20;;;;;;;;;;5039792;28;20425;-85
2023/11/17 06:47:16;;;;;;;61.10;32.08;;;;;;;;;;5024083;28;20189;-86
2023/11/17 06:49:42;;;;;;;71.82;31.40;;;;;;;;;;5007590;28;20183;-85
2023/11/17 06:52:09;;;;;;;69.47;33.65;;;;;;;;;;5014975;28;20269;-86
2023/11/17 06:54:36;;;;;;;71.35;34.00;;;;;;;;;;5011713;28;20224;-86
2023/11/17 06:57:03;;;;;;;68.13;33.70;;;;;;;;;;5043843;28;20228;-85
2023/11/17 06:59:29;;;;;;;57.47;30.17;;;;;;;;;;5024249;28;20231;-85
2023/11/17 07:01:55;;;;;;;63.22;29.45;;;;;;;;;;5011383;28;20210;-85
2023/11/17 07:04:21;;;;;;;78.15;32.35;;;;;;;;;;5040833;28;20187;-85
2023/11/17 07:06:50;;;;;;;69.13;31.17;;;;;;;;;;5004043;28;20214;-85
2023/11/17 07:09:16;;;;;;;64.05;30.58;;;;;;;;;;5019694;28;20546;-85
2023/11/17 07:11:46;;;;;;;64.63;32.05;;;;;;;;;;5007319;28;20178;-85
2023/11/17 07:14:19;;;;;;;74.13;34.88;;;;;;;;;;5042697;28;20237;-85
2023/11/17 07:16:45;;;;;;;76.82;33.53;;;;;;;;;;5031108;28;20818;-86
2023/11/17 07:19:15;;;;;;;89.43;35.63;;;;;;;;;;5019211;28;20539;-85
2023/11/17 07:21:42;;;;;;;86.15;35.78;;;;;;;;;;5038939;28;20178;-85
2023/11/17 07:24:10;;;;;;;100.60;38.25;;;;;;;;;;5004341;28;20190;-85
2023/11/17 07:26:36;;;;;;;79.60;35.33;;;;;;;;;;5017195;28;20188;-85
2023/11/17 07:29:03;;;;;;;81.55;36.80;;;;;;;;;;5040103;28;20182;-86
2023/11/17 07:31:37;;;;;;;85.60;35.05;;;;;;;;;;5032404;28;20189;-86
2023/11/17 07:34:03;;;;;;;80.60;33.38;;;;;;;;;;5019203;28;20226;-86
2023/11/17 07:36:29;;;;;;;85.90;35.00;;;;;;;;;;5018752;28;20256;-86
2023/11/17 07:38:55;;;;;;;84.85;34.83;;;;;;;;;;5015476;28;20482;-87
2023/11/17 07:41:23;;;;;;;101.50;39.15;;;;;;;;;;5003064;28;20201;-87
2023/11/17 07:43:49;;;;;;;80.70;36.00;;;;;;;;;;5043590;28;20178;-87
2023/11/17 07:46:15;;;;;;;72.57;32.83;;;;;;;;;;5039263;28;20192;-87
2023/11/17 07:48:44;;;;;;;78.85;37.42;;;;;;;;;;5022804;28;20510;-87
2023/11/17 07:51:12;;;;;;;78.53;33.40;;;;;;;;;;5022888;28;20186;-86
2023/11/17 07:53:38;;;;;;;79.10;35.03;;;;;;;;;;5037935;28;20177;-87
2023/11/17 07:56:05;;;;;;;80.38;36.03;;;;;;;;;;5028790;28;20228;-93
2023/11/17 07:58:31;;;;;;;88.07;38.72;;;;;;;;;;5049552;28;20185;-92
2023/11/17 08:00:58;;;;;;;81.47;36.53;;;;;;;;;;5011435;28;20221;-90
2023/11/17 08:03:24;;;;;;;76.35;33.65;;;;;;;;;;5018181;28;20188;-90
2023/11/17 08:05:51;;;;;;;69.22;34.13;;;;;;;;;;5038841;28;20190;-91
2023/11/17 08:08:17;;;;;;;90.45;35.78;;;;;;;;;;5029196;28;20184;-92
2023/11/17 08:10:43;;;;;;;81.05;34.42;;;;;;;;;;5023005;28;20179;-93
2023/11/17 08:13:10;;;;;;;78.70;34.60;;;;;;;;;;5046640;28;20178;-90
2023/11/17 08:15:36;;;;;;;79.75;36.20;;;;;;;;;;5044258;28;20198;-93
2023/11/17 08:18:02;;;;;;;85.82;35.80;;;;;;;;;;5044522;28;20240;-92
2023/11/17 08:20:31;;;;;;;79.82;35.10;;;;;;;;;;5022728;28;20197;-92
2023/11/17 08:22:58;;;;;;;85.97;37.25;;;;;;;;;;5028100;28;20677;-92
2023/11/17 08:25:26;;;;;;;88.60;37.13;;;;;;;;;;5043195;28;20598;-92
2023/11/17 08:27:52;;;;;;;78.30;35.38;;;;;;;;;;5025172;28;20215;-92
2023/11/17 08:30:19;;;;;;;80.10;36.00;;;;;;;;;;5041925;28;20234;-92
2023/11/17 08:32:45;;;;;;;90.55;37.83;;;;;;;;;;5029686;28;20181;-92
2023/11/17 08:35:11;;;;;;;94.10;38.67;;;;;;;;;;5022077;28;20233;-92
2023/11/17 08:37:37;;;;;;;86.78;38.38;;;;;;;;;;5051637;28;20183;-90
2023/11/17 08:40:10;;;;;;;79.60;37.47;;;;;;;;;;5011958;28;20186;-89
2023/11/17 08:42:39;;;;;;;88.65;37.55;;;;;;;;;;5023290;28;20179;-89
2023/11/17 08:45:08;;;;;;;87.50;39.38;;;;;;;;;;5025640;28;20174;-88
2023/11/17 08:47:38;;;;;;;84.40;34.55;;;;;;;;;;5026993;28;20181;-89
2023/11/17 08:50:06;;;;;;;89.82;39.22;;;;;;;;;;5032987;28;20183;-87
2023/11/17 08:52:34;;;;;;;85.25;37.03;;;;;;;;;;5036775;28;20171;-88
2023/11/17 08:55:07;;;;;;;89.88;38.28;;;;;;;;;;5045830;28;20549;-91
2023/11/17 08:57:33;;;;;;;82.75;35.60;;;;;;;;;;5012309;28;20209;-89
2023/11/17 09:00:00;;;;;;;81.45;34.03;;;;;;;;;;5017297;28;20204;-90
2023/11/17 09:02:26;;;;;;;97.00;48.67;;;;;;;;;;5022568;28;20184;-89
2023/11/17 09:04:52;;;;;;;93.32;52.22;;;;;;;;;;5038745;28;20185;-89
2023/11/17 09:07:19;;;;;;;89.20;39.85;;;;;;;;;;5019081;28;20274;-86
2023/11/17 09:09:46;;;;;;;99.88;44.65;;;;;;;;;;5029154;28;20183;-88
2023/11/17 09:12:13;;;;;;;359.40;231.80;;;;;;;;;;5042013;28;20185;-88
2023/11/17 09:14:40;;;;;;;87.47;42.35;;;;;;;;;;5027005;28;20201;-87
2023/11/17 09:17:06;;;;;;;120.72;49.25;;;;;;;;;;5039449;28;20211;-83
2023/11/17 09:19:37;;;;;;;130.48;63.55;;;;;;;;;;5042007;28;20182;-87
2023/11/17 09:22:07;;;;;;;112.40;46.00;;;;;;;;;;5022999;28;20532;-87
2023/11/17 09:24:33;;;;;;;97.60;41.75;;;;;;;;;;5029772;28;20276;-88
2023/11/17 09:26:59;;;;;;;91.90;37.10;;;;;;;;;;5025557;28;20219;-83
2023/11/17 09:29:30;;;;;;;90.82;40.80;;;;;;;;;;5011303;28;20260;-85
2023/11/17 09:31:56;;;;;;;85.13;35.30;;;;;;;;;;5020896;28;20236;-83
2023/11/17 09:34:22;;;;;;;94.87;36.53;;;;;;;;;;5014749;28;20679;-84
2023/11/17 09:36:49;;;;;;;82.32;35.70;;;;;;;;;;5019755;28;20436;-84
2023/11/17 09:39:15;;;;;;;106.47;46.78;;;;;;;;;;5035486;28;20178;-84
2023/11/17 09:41:43;;;;;;;84.78;37.28;;;;;;;;;;5040192;28;20175;-83
2023/11/17 09:44:10;;;;;;;78.55;35.05;;;;;;;;;;5037100;28;20586;-84
2023/11/17 09:46:49;;;;;;;94.22;35.80;;;;;;;;;;5014037;28;20175;-84
2023/11/17 09:49:17;;;;;;;78.75;34.20;;;;;;;;;;5028856;28;20638;-83
2023/11/17 09:51:43;;;;;;;83.50;35.88;;;;;;;;;;5034984;28;20266;-83
2023/11/17 09:54:13;;;;;;;85.80;35.35;;;;;;;;;;5025691;28;20209;-86
2023/11/17 09:56:40;;;;;;;86.05;38.63;;;;;;;;;;5023964;28;20179;-83
2023/11/17 09:59:07;;;;;;;78.72;34.78;;;;;;;;;;5025147;28;20713;-83
2023/11/17 10:01:34;;;;;;;89.55;37.80;;;;;;;;;;5024608;28;20180;-83
2023/11/17 10:04:02;;;;;;;83.63;36.35;;;;;;;;;;5017693;28;20613;-83
2023/11/17 10:06:28;;;;;;;85.50;36.63;;;;;;;;;;5025762;28;20231;-83
2023/11/17 10:08:58;;;;;;;78.43;34.47;;;;;;;;;;5023776;28;20185;-82
2023/11/17 10:11:27;;;;;;;74.40;32.20;;;;;;;;;;5021341;28;20188;-83
2023/11/17 10:13:56;;;;;;;75.15;34.38;;;;;;;;;;5019918;28;20300;-84
2023/11/17 10:16:23;;;;;;;76.43;35.22;;;;;;;;;;5024953;28;20184;-83
2023/11/17 10:18:49;;;;;;;71.95;35.00;;;;;;;;;;5011223;28;20174;-82
2023/11/17 10:21:15;;;;;;;74.60;34.05;;;;;;;;;;5023707;28;20175;-82
2023/11/17 10:23:44;;;;;;;72.80;34.13;;;;;;;;;;5031702;28;20195;-83
2023/11/17 10:26:10;;;;;;;86.65;39.30;;;;;;;;;;5026307;28;20187;-85
2023/11/17 10:28:36;;;;;;;103.40;53.83;;;;;;;;;;5035095;28;20250;-84
2023/11/17 10:31:05;;;;;;;79.40;36.83;;;;;;;;;;5023834;28;20290;-84
2023/11/17 10:33:34;;;;;;;71.88;33.28;;;;;;;;;;5045266;28;20840;-83
2023/11/17 10:36:01;;;;;;;68.05;32.55;;;;;;;;;;5038472;28;20188;-85
2023/11/17 10:38:27;;;;;;;80.03;34.65;;;;;;;;;;5037699;28;20240;-84
2023/11/17 10:40:53;;;;;;;74.30;33.50;;;;;;;;;;5042183;28;20188;-84
2023/11/17 10:43:19;;;;;;;57.13;30.63;;;;;;;;;;5021476;28;20201;-81
2023/11/17 10:45:45;;;;;;;65.88;31.27;;;;;;;;;;5035004;28;20670;-82
2023/11/17 10:48:16;;;;;;;70.47;31.67;;;;;;;;;;5036972;28;20181;-82
2023/11/17 10:50:45;;;;;;;63.20;29.77;;;;;;;;;;5040599;28;20171;-83
2023/11/17 10:53:13;;;;;;;63.90;28.90;;;;;;;;;;5037899;28;20185;-83
2023/11/17 10:55:42;;;;;;;63.13;28.50;;;;;;;;;;5003537;28;20198;-84
2023/11/17 10:58:08;;;;;;;69.85;33.63;;;;;;;;;;5014012;28;20186;-84
2023/11/17 11:00:38;;;;;;;63.70;30.73;;;;;;;;;;5025986;28;20196;-84
2023/11/17 11:03:04;;;;;;;70.70;37.40;;;;;;;;;;5017159;28;20181;-84
2023/11/17 11:05:31;;;;;;;64.35;32.78;;;;;;;;;;5025415;28;20183;-84
2023/11/17 11:07:58;;;;;;;62.35;31.75;;;;;;;;;;5023073;28;20189;-86
2023/11/17 11:10:27;;;;;;;69.78;31.77;;;;;;;;;;5038956;28;20219;-82
2023/11/17 11:12:53;;;;;;;62.45;36.47;;;;;;;;;;5022318;28;20191;-82
2023/11/17 11:15:20;;;;;;;67.57;37.08;;;;;;;;;;5015524;28;20542;-82
2023/11/17 11:17:52;;;;;;;71.10;35.95;;;;;;;;;;5015653;28;20182;-84
2023/11/17 11:20:21;;;;;;;63.13;34.42;;;;;;;;;;5040312;28;20181;-84
2023/11/17 11:22:47;;;;;;;68.13;31.95;;;;;;;;;;5004622;28;20187;-84
2023/11/17 11:25:15;;;;;;;62.00;34.00;;;;;;;;;;5037248;28;20626;-82
2023/11/17 11:27:41;;;;;;;69.45;35.67;;;;;;;;;;5028450;28;20187;-85
2023/11/17 11:30:08;;;;;;;53.58;28.73;;;;;;;;;;5034386;28;20256;-84
2023/11/17 11:32:35;;;;;;;64.22;34.75;;;;;;;;;;5021426;28;20183;-84
2023/11/17 11:35:02;;;;;;;60.30;30.45;;;;;;;;;;5003655;28;20224;-82
2023/11/17 11:37:32;;;;;;;64.88;31.58;;;;;;;;;;5013281;28;20642;-83
2023/11/17 11:39:58;;;;;;;55.28;29.45;;;;;;;;;;5020314;28;20185;-83
2023/11/17 11:42:25;;;;;;;57.50;29.38;;;;;;;;;;5051299;28;20178;-83
2023/11/17 11:44:51;;;;;;;64.68;34.15;;;;;;;;;;5001875;28;20270;-85
2023/11/17 11:47:22;;;;;;;69.28;32.47;;;;;;;;;;5038261;28;20178;-83
2023/11/17 11:49:50;;;;;;;55.85;26.52;;;;;;;;;;5028069;28;20575;-83
2023/11/17 11:52:21;;;;;;;55.38;28.75;;;;;;;;;;5042316;28;20179;-82
2023/11/17 11:54:47;;;;;;;52.05;28.33;;;;;;;;;;5029473;28;20555;-82
2023/11/17 11:57:27;;;;;;;63.85;34.55;;;;;;;;;;5042086;28;20192;-84
2023/11/17 12:00:00;;;;;;;60.67;32.35;;;;;;;;;;5020023;28;20212;-84
2023/11/17 12:02:26;;;;;;;54.80;27.25;;;;;;;;;;5051076;28;20698;-83
2023/11/17 12:04:53;;;;;;;54.53;28.02;;;;;;;;;;5037048;28;20220;-82
2023/11/17 12:07:46;;;;;;;50.30;26.23;;;;;;;;;;5023755;28;20192;-82
2023/11/17 12:10:15;;;;;;;54.30;30.13;;;;;;;;;;5019572;28;20657;-83
2023/11/17 12:12:41;;;;;;;52.85;27.80;;;;;;;;;;5023653;28;20178;-83
2023/11/17 12:15:08;;;;;;;63.92;29.08;;;;;;;;;;5021131;28;20206;-84
2023/11/17 12:17:43;;;;;;;50.35;25.55;;;;;;;;;;5006549;28;20189;-84
2023/11/17 12:20:19;;;;;;;52.58;26.35;;;;;;;;;;5040171;28;20625;-83
2023/11/17 12:23:01;;;;;;;58.45;25.88;;;;;;;;;;5037550;28;20181;-85
2023/11/17 12:25:28;;;;;;;50.92;27.83;;;;;;;;;;5024327;28;20700;-84
2023/11/17 12:27:58;;;;;;;54.13;30.00;;;;;;;;;;5022265;28;20244;-85
2023/11/17 12:30:25;;;;;;;51.40;27.73;;;;;;;;;;5028500;28;20245;-88
2023/11/17 12:32:51;;;;;;;57.10;30.38;;;;;;;;;;5023121;28;20634;-85
2023/11/17 12:35:20;;;;;;;58.75;29.45;;;;;;;;;;5017898;28;20216;-85
2023/11/17 12:37:48;;;;;;;56.22;29.30;;;;;;;;;;5014126;28;20175;-86
2023/11/17 12:40:16;;;;;;;60.95;31.02;;;;;;;;;;5005873;28;20229;-82
2023/11/17 12:42:45;;;;;;;57.50;29.40;;;;;;;;;;5019456;28;20175;-83
2023/11/17 12:45:16;;;;;;;53.92;27.13;;;;;;;;;;5026036;28;20194;-85
2023/11/17 12:47:42;;;;;;;46.78;26.25;;;;;;;;;;5011506;28;20221;-82
2023/11/17 12:50:10;;;;;;;49.97;26.63;;;;;;;;;;5027425;28;20643;-86
2023/11/17 12:52:36;;;;;;;54.85;29.15;;;;;;;;;;5016212;28;20243;-84
2023/11/17 12:55:09;;;;;;;58.72;28.52;;;;;;;;;;5021674;28;20197;-84
2023/11/17 12:57:39;;;;;;;57.83;28.23;;;;;;;;;;5020357;28;20208;-84
2023/11/17 13:00:13;;;;;;;59.05;27.13;;;;;;;;;;5016532;28;20218;-84
2023/11/17 13:02:40;;;;;;;57.83;29.35;;;;;;;;;;5011538;28;20163;-86
2023/11/17 13:05:08;;;;;;;55.42;27.70;;;;;;;;;;5016429;28;20597;-87
2023/11/17 13:07:36;;;;;;;61.17;29.17;;;;;;;;;;5023796;28;20211;-83
2023/11/17 13:10:03;;;;;;;54.60;26.85;;;;;;;;;;5020889;28;20210;-83
2023/11/17 13:12:29;;;;;;;54.70;27.17;;;;;;;;;;5011431;28;20202;-87
2023/11/17 13:14:57;;;;;;;55.95;26.42;;;;;;;;;;5016708;28;20197;-84
2023/11/17 13:17:24;;;;;;;47.70;25.08;;;;;;;;;;4990049;28;20280;-85
2023/11/17 13:19:51;;;;;;;49.70;25.95;;;;;;;;;;5020038;28;20186;-84
2023/11/17 13:22:17;;;;;;;54.08;27.35;;;;;;;;;;5015842;28;20177;-87
2023/11/17 13:24:44;;;;;;;55.17;28.35;;;;;;;;;;5021406;28;20189;-83
2023/11/17 13:27:12;;;;;;;61.75;29.48;;;;;;;;;;5018554;28;20218;-86
2023/11/17 13:29:42;;;;;;;62.95;27.40;;;;;;;;;;5022824;28;20240;-86
2023/11/17 13:32:10;;;;;;;62.05;26.70;;;;;;;;;;5025163;28;20185;-86
2023/11/17 13:34:36;;;;;;;66.00;30.08;;;;;;;;;;5017935;28;20673;-86
2023/11/17 13:37:03;;;;;;;58.45;28.95;;;;;;;;;;5013793;28;20240;-87
2023/11/17 13:39:33;;;;;;;58.40;29.88;;;;;;;;;;5020189;28;20185;-87
2023/11/17 13:42:01;;;;;;;63.30;29.25;;;;;;;;;;5017465;28;20677;-86
2023/11/17 13:44:29;;;;;;;65.20;31.30;;;;;;;;;;5017182;28;20174;-86
2023/11/17 13:46:57;;;;;;;64.43;31.48;;;;;;;;;;5020207;28;20214;-86
2023/11/17 13:49:24;;;;;;;69.05;29.75;;;;;;;;;;5033488;28;20280;-86
2023/11/17 13:51:57;;;;;;;64.57;28.77;;;;;;;;;;5020347;28;20544;-86
2023/11/17 13:54:29;;;;;;;69.43;33.65;;;;;;;;;;5017122;28;20218;-87
2023/11/17 13:56:55;;;;;;;63.03;30.65;;;;;;;;;;5023679;28;20182;-86
2023/11/17 13:59:25;;;;;;;61.30;30.65;;;;;;;;;;5020500;28;20546;-88
2023/11/17 14:01:58;;;;;;;69.13;30.80;;;;;;;;;;5026158;28;20196;-87
2023/11/17 14:04:27;;;;;;;70.20;29.27;;;;;;;;;;5017941;28;20209;-86
2023/11/17 14:06:54;;;;;;;66.15;29.40;;;;;;;;;;5021516;28;20543;-87
2023/11/17 14:09:23;;;;;;;73.90;31.05;;;;;;;;;;5018376;28;20273;-86
2023/11/17 14:11:50;;;;;;;73.75;32.92;;;;;;;;;;5014457;28;20178;-85
2023/11/17 14:14:16;;;;;;;63.67;32.03;;;;;;;;;;5015891;28;20670;-85
2023/11/17 14:16:43;;;;;;;70.80;31.13;;;;;;;;;;5002278;28;20202;-87
2023/11/17 14:19:11;;;;;;;72.60;33.00;;;;;;;;;;5016607;28;20558;-87